<?xml version="1.0" encoding="UTF-8" standalone="no" ?>
<gpx xmlns="http://www.topografix.com/GPX/1/1" xmlns:xsi="http://www.w3.org/2001/XMLSchema-instance" xsi:schemaLocation="http://www.topografix.com/GPX/1/1 http://www.topografix.com/GPX/1/1/gpx.xsd" version="1.1" creator="VisuGPX - https://www.visugpx.com">
  <metadata>
    <name>Course à pied en soirée</name>
  </metadata>
  <trk>
    <name><![CDATA[Course à pied en soirée_1]]></name>
    <trkseg>
      <trkpt lat="48.70814" lon="7.15571">
        <ele>349.4</ele>
        <time>2024-01-23T17:16:57Z</time>
      </trkpt>
      <trkpt lat="48.70814" lon="7.15571">
        <ele>349.4</ele>
        <time>2024-01-23T17:17:06Z</time>
      </trkpt>
      <trkpt lat="48.70814" lon="7.15571">
        <ele>349.4</ele>
        <time>2024-01-23T17:17:14Z</time>
      </trkpt>
      <trkpt lat="48.70814" lon="7.15571">
        <ele>349.4</ele>
        <time>2024-01-23T17:17:22Z</time>
      </trkpt>
      <trkpt lat="48.70814" lon="7.15571">
        <ele>349.4</ele>
        <time>2024-01-23T17:17:30Z</time>
      </trkpt>
      <trkpt lat="48.70814" lon="7.15571">
        <ele>349.4</ele>
        <time>2024-01-23T17:17:37Z</time>
      </trkpt>
      <trkpt lat="48.70814" lon="7.15571">
        <ele>349.4</ele>
        <time>2024-01-23T17:17:44Z</time>
      </trkpt>
      <trkpt lat="48.70814" lon="7.15571">
        <ele>349.4</ele>
        <time>2024-01-23T17:17:51Z</time>
      </trkpt>
      <trkpt lat="48.70814" lon="7.15571">
        <ele>349.4</ele>
        <time>2024-01-23T17:17:58Z</time>
      </trkpt>
      <trkpt lat="48.70814" lon="7.15571">
        <ele>349.4</ele>
        <time>2024-01-23T17:18:05Z</time>
      </trkpt>
      <trkpt lat="48.70814" lon="7.15571">
        <ele>349.4</ele>
        <time>2024-01-23T17:18:12Z</time>
      </trkpt>
      <trkpt lat="48.70814" lon="7.15571">
        <ele>349.4</ele>
        <time>2024-01-23T17:18:19Z</time>
      </trkpt>
      <trkpt lat="48.70814" lon="7.15571">
        <ele>349.4</ele>
        <time>2024-01-23T17:18:26Z</time>
      </trkpt>
      <trkpt lat="48.70814" lon="7.15571">
        <ele>349.4</ele>
        <time>2024-01-23T17:18:33Z</time>
      </trkpt>
      <trkpt lat="48.70814" lon="7.15571">
        <ele>349.4</ele>
        <time>2024-01-23T17:18:40Z</time>
      </trkpt>
      <trkpt lat="48.70814" lon="7.15571">
        <ele>349.4</ele>
        <time>2024-01-23T17:18:47Z</time>
      </trkpt>
      <trkpt lat="48.70814" lon="7.15571">
        <ele>349.4</ele>
        <time>2024-01-23T17:18:54Z</time>
      </trkpt>
      <trkpt lat="48.70814" lon="7.15571">
        <ele>349.4</ele>
        <time>2024-01-23T17:19:01Z</time>
      </trkpt>
      <trkpt lat="48.70814" lon="7.15571">
        <ele>349.4</ele>
        <time>2024-01-23T17:19:08Z</time>
      </trkpt>
      <trkpt lat="48.70814" lon="7.15571">
        <ele>349.4</ele>
        <time>2024-01-23T17:19:15Z</time>
      </trkpt>
      <trkpt lat="48.70814" lon="7.15571">
        <ele>349.4</ele>
        <time>2024-01-23T17:19:22Z</time>
      </trkpt>
      <trkpt lat="48.70814" lon="7.15571">
        <ele>349.4</ele>
        <time>2024-01-23T17:19:29Z</time>
      </trkpt>
      <trkpt lat="48.70814" lon="7.15571">
        <ele>349.4</ele>
        <time>2024-01-23T17:19:36Z</time>
      </trkpt>
      <trkpt lat="48.70814" lon="7.15571">
        <ele>349.4</ele>
        <time>2024-01-23T17:19:43Z</time>
      </trkpt>
      <trkpt lat="48.70814" lon="7.15571">
        <ele>349.4</ele>
        <time>2024-01-23T17:19:50Z</time>
      </trkpt>
      <trkpt lat="48.70814" lon="7.15571">
        <ele>349.4</ele>
        <time>2024-01-23T17:19:57Z</time>
      </trkpt>
      <trkpt lat="48.70814" lon="7.15571">
        <ele>349.4</ele>
        <time>2024-01-23T17:20:04Z</time>
      </trkpt>
      <trkpt lat="48.70814" lon="7.15571">
        <ele>349.4</ele>
        <time>2024-01-23T17:20:11Z</time>
      </trkpt>
      <trkpt lat="48.70814" lon="7.15571">
        <ele>349.4</ele>
        <time>2024-01-23T17:20:18Z</time>
      </trkpt>
      <trkpt lat="48.70814" lon="7.15571">
        <ele>349.4</ele>
        <time>2024-01-23T17:20:25Z</time>
      </trkpt>
      <trkpt lat="48.70814" lon="7.15571">
        <ele>349.4</ele>
        <time>2024-01-23T17:20:32Z</time>
      </trkpt>
      <trkpt lat="48.70814" lon="7.15571">
        <ele>349.4</ele>
        <time>2024-01-23T17:20:39Z</time>
      </trkpt>
      <trkpt lat="48.70814" lon="7.15571">
        <ele>349.4</ele>
        <time>2024-01-23T17:20:46Z</time>
      </trkpt>
      <trkpt lat="48.70814" lon="7.15571">
        <ele>349.4</ele>
        <time>2024-01-23T17:20:53Z</time>
      </trkpt>
      <trkpt lat="48.70814" lon="7.15571">
        <ele>349.4</ele>
        <time>2024-01-23T17:21:00Z</time>
      </trkpt>
      <trkpt lat="48.70814" lon="7.15571">
        <ele>349.4</ele>
        <time>2024-01-23T17:21:08Z</time>
      </trkpt>
      <trkpt lat="48.70799" lon="7.15551">
        <ele>350.2</ele>
        <time>2024-01-23T17:21:16Z</time>
      </trkpt>
      <trkpt lat="48.70785" lon="7.15534">
        <ele>350.9</ele>
        <time>2024-01-23T17:21:23Z</time>
      </trkpt>
      <trkpt lat="48.7077" lon="7.15519">
        <ele>351.5</ele>
        <time>2024-01-23T17:21:30Z</time>
      </trkpt>
      <trkpt lat="48.70753" lon="7.15503">
        <ele>352.3</ele>
        <time>2024-01-23T17:21:37Z</time>
      </trkpt>
      <trkpt lat="48.70737" lon="7.15485">
        <ele>353.1</ele>
        <time>2024-01-23T17:21:45Z</time>
      </trkpt>
      <trkpt lat="48.7072" lon="7.1547">
        <ele>354</ele>
        <time>2024-01-23T17:21:53Z</time>
      </trkpt>
      <trkpt lat="48.70703" lon="7.15456">
        <ele>355</ele>
        <time>2024-01-23T17:22:02Z</time>
      </trkpt>
      <trkpt lat="48.70686" lon="7.15447">
        <ele>355.9</ele>
        <time>2024-01-23T17:22:09Z</time>
      </trkpt>
      <trkpt lat="48.70667" lon="7.15436">
        <ele>356.4</ele>
        <time>2024-01-23T17:22:17Z</time>
      </trkpt>
      <trkpt lat="48.7065" lon="7.15428">
        <ele>356.7</ele>
        <time>2024-01-23T17:22:23Z</time>
      </trkpt>
      <trkpt lat="48.70631" lon="7.15418">
        <ele>357</ele>
        <time>2024-01-23T17:22:31Z</time>
      </trkpt>
      <trkpt lat="48.70613" lon="7.15411">
        <ele>357.4</ele>
        <time>2024-01-23T17:22:38Z</time>
      </trkpt>
      <trkpt lat="48.70596" lon="7.15401">
        <ele>357.6</ele>
        <time>2024-01-23T17:22:46Z</time>
      </trkpt>
      <trkpt lat="48.70577" lon="7.15391">
        <ele>357.7</ele>
        <time>2024-01-23T17:22:54Z</time>
      </trkpt>
      <trkpt lat="48.70558" lon="7.1538">
        <ele>357.9</ele>
        <time>2024-01-23T17:23:01Z</time>
      </trkpt>
      <trkpt lat="48.70541" lon="7.15371">
        <ele>358.2</ele>
        <time>2024-01-23T17:23:07Z</time>
      </trkpt>
      <trkpt lat="48.70524" lon="7.15359">
        <ele>358.5</ele>
        <time>2024-01-23T17:23:14Z</time>
      </trkpt>
      <trkpt lat="48.70508" lon="7.15342">
        <ele>358.8</ele>
        <time>2024-01-23T17:23:22Z</time>
      </trkpt>
      <trkpt lat="48.70491" lon="7.15329">
        <ele>359</ele>
        <time>2024-01-23T17:23:29Z</time>
      </trkpt>
      <trkpt lat="48.70473" lon="7.15312">
        <ele>359.2</ele>
        <time>2024-01-23T17:23:37Z</time>
      </trkpt>
      <trkpt lat="48.70457" lon="7.15301">
        <ele>359.3</ele>
        <time>2024-01-23T17:23:44Z</time>
      </trkpt>
      <trkpt lat="48.70438" lon="7.15291">
        <ele>359.2</ele>
        <time>2024-01-23T17:23:52Z</time>
      </trkpt>
      <trkpt lat="48.7042" lon="7.15283">
        <ele>359.3</ele>
        <time>2024-01-23T17:23:59Z</time>
      </trkpt>
      <trkpt lat="48.70402" lon="7.15275">
        <ele>359.3</ele>
        <time>2024-01-23T17:24:03Z</time>
      </trkpt>
      <trkpt lat="48.70383" lon="7.15267">
        <ele>359.4</ele>
        <time>2024-01-23T17:24:09Z</time>
      </trkpt>
      <trkpt lat="48.70364" lon="7.15258">
        <ele>359.4</ele>
        <time>2024-01-23T17:24:16Z</time>
      </trkpt>
      <trkpt lat="48.70348" lon="7.15245">
        <ele>359.5</ele>
        <time>2024-01-23T17:24:23Z</time>
      </trkpt>
      <trkpt lat="48.70347" lon="7.15242">
        <ele>359.6</ele>
        <time>2024-01-23T17:24:24Z</time>
      </trkpt>
      <trkpt lat="48.70356" lon="7.15219">
        <ele>359.9</ele>
        <time>2024-01-23T17:24:31Z</time>
      </trkpt>
      <trkpt lat="48.70364" lon="7.15204">
        <ele>359.9</ele>
        <time>2024-01-23T17:24:37Z</time>
      </trkpt>
      <trkpt lat="48.7038" lon="7.15186">
        <ele>360</ele>
        <time>2024-01-23T17:24:45Z</time>
      </trkpt>
      <trkpt lat="48.70396" lon="7.15166">
        <ele>360.1</ele>
        <time>2024-01-23T17:24:52Z</time>
      </trkpt>
      <trkpt lat="48.7041" lon="7.15145">
        <ele>360.2</ele>
        <time>2024-01-23T17:24:59Z</time>
      </trkpt>
      <trkpt lat="48.70425" lon="7.15123">
        <ele>360.2</ele>
        <time>2024-01-23T17:25:06Z</time>
      </trkpt>
      <trkpt lat="48.70439" lon="7.15104">
        <ele>360.2</ele>
        <time>2024-01-23T17:25:13Z</time>
      </trkpt>
      <trkpt lat="48.70452" lon="7.15085">
        <ele>360.3</ele>
        <time>2024-01-23T17:25:21Z</time>
      </trkpt>
      <trkpt lat="48.70466" lon="7.15065">
        <ele>360.5</ele>
        <time>2024-01-23T17:25:29Z</time>
      </trkpt>
      <trkpt lat="48.70478" lon="7.15039">
        <ele>360.4</ele>
        <time>2024-01-23T17:25:37Z</time>
      </trkpt>
      <trkpt lat="48.70491" lon="7.15017">
        <ele>360</ele>
        <time>2024-01-23T17:25:45Z</time>
      </trkpt>
      <trkpt lat="48.70503" lon="7.14995">
        <ele>359.7</ele>
        <time>2024-01-23T17:25:52Z</time>
      </trkpt>
      <trkpt lat="48.70514" lon="7.14974">
        <ele>359.4</ele>
        <time>2024-01-23T17:25:59Z</time>
      </trkpt>
      <trkpt lat="48.70525" lon="7.14952">
        <ele>359.1</ele>
        <time>2024-01-23T17:26:07Z</time>
      </trkpt>
      <trkpt lat="48.70539" lon="7.14934">
        <ele>358.8</ele>
        <time>2024-01-23T17:26:14Z</time>
      </trkpt>
      <trkpt lat="48.70554" lon="7.14919">
        <ele>358.5</ele>
        <time>2024-01-23T17:26:22Z</time>
      </trkpt>
      <trkpt lat="48.70569" lon="7.14899">
        <ele>358.1</ele>
        <time>2024-01-23T17:26:30Z</time>
      </trkpt>
      <trkpt lat="48.70583" lon="7.1488">
        <ele>357.8</ele>
        <time>2024-01-23T17:26:37Z</time>
      </trkpt>
      <trkpt lat="48.70598" lon="7.14864">
        <ele>357.5</ele>
        <time>2024-01-23T17:26:46Z</time>
      </trkpt>
      <trkpt lat="48.70612" lon="7.14847">
        <ele>357.2</ele>
        <time>2024-01-23T17:26:52Z</time>
      </trkpt>
      <trkpt lat="48.70626" lon="7.14829">
        <ele>356.8</ele>
        <time>2024-01-23T17:27:00Z</time>
      </trkpt>
      <trkpt lat="48.7064" lon="7.14807">
        <ele>356.5</ele>
        <time>2024-01-23T17:27:08Z</time>
      </trkpt>
      <trkpt lat="48.70654" lon="7.14784">
        <ele>356.2</ele>
        <time>2024-01-23T17:27:16Z</time>
      </trkpt>
      <trkpt lat="48.70662" lon="7.1476">
        <ele>355.8</ele>
        <time>2024-01-23T17:27:24Z</time>
      </trkpt>
      <trkpt lat="48.70652" lon="7.14737">
        <ele>355.5</ele>
        <time>2024-01-23T17:27:31Z</time>
      </trkpt>
      <trkpt lat="48.70636" lon="7.14719">
        <ele>355.2</ele>
        <time>2024-01-23T17:27:38Z</time>
      </trkpt>
      <trkpt lat="48.70624" lon="7.14698">
        <ele>354.9</ele>
        <time>2024-01-23T17:27:45Z</time>
      </trkpt>
      <trkpt lat="48.70611" lon="7.14678">
        <ele>354.5</ele>
        <time>2024-01-23T17:27:52Z</time>
      </trkpt>
      <trkpt lat="48.70597" lon="7.14657">
        <ele>354.2</ele>
        <time>2024-01-23T17:27:59Z</time>
      </trkpt>
      <trkpt lat="48.70584" lon="7.14635">
        <ele>353.9</ele>
        <time>2024-01-23T17:28:07Z</time>
      </trkpt>
      <trkpt lat="48.70574" lon="7.14612">
        <ele>353.6</ele>
        <time>2024-01-23T17:28:14Z</time>
      </trkpt>
      <trkpt lat="48.7056" lon="7.14589">
        <ele>353.2</ele>
        <time>2024-01-23T17:28:21Z</time>
      </trkpt>
      <trkpt lat="48.70546" lon="7.1457">
        <ele>352.9</ele>
        <time>2024-01-23T17:28:27Z</time>
      </trkpt>
      <trkpt lat="48.70535" lon="7.14548">
        <ele>352.6</ele>
        <time>2024-01-23T17:28:34Z</time>
      </trkpt>
      <trkpt lat="48.70521" lon="7.14525">
        <ele>352.2</ele>
        <time>2024-01-23T17:28:42Z</time>
      </trkpt>
      <trkpt lat="48.7051" lon="7.14501">
        <ele>351.9</ele>
        <time>2024-01-23T17:28:51Z</time>
      </trkpt>
      <trkpt lat="48.70497" lon="7.1448">
        <ele>351.5</ele>
        <time>2024-01-23T17:28:59Z</time>
      </trkpt>
      <trkpt lat="48.70483" lon="7.14459">
        <ele>351.2</ele>
        <time>2024-01-23T17:29:06Z</time>
      </trkpt>
      <trkpt lat="48.70468" lon="7.1444">
        <ele>350.9</ele>
        <time>2024-01-23T17:29:14Z</time>
      </trkpt>
      <trkpt lat="48.70457" lon="7.14416">
        <ele>350.5</ele>
        <time>2024-01-23T17:29:22Z</time>
      </trkpt>
      <trkpt lat="48.70446" lon="7.14391">
        <ele>350.2</ele>
        <time>2024-01-23T17:29:29Z</time>
      </trkpt>
      <trkpt lat="48.70432" lon="7.14371">
        <ele>349.8</ele>
        <time>2024-01-23T17:29:37Z</time>
      </trkpt>
      <trkpt lat="48.70421" lon="7.14348">
        <ele>349.5</ele>
        <time>2024-01-23T17:29:44Z</time>
      </trkpt>
      <trkpt lat="48.70411" lon="7.14324">
        <ele>349.2</ele>
        <time>2024-01-23T17:29:51Z</time>
      </trkpt>
      <trkpt lat="48.70413" lon="7.14304">
        <ele>349</ele>
        <time>2024-01-23T17:29:58Z</time>
      </trkpt>
      <trkpt lat="48.70406" lon="7.1429">
        <ele>348.8</ele>
        <time>2024-01-23T17:30:02Z</time>
      </trkpt>
      <trkpt lat="48.70408" lon="7.14282">
        <ele>348.9</ele>
        <time>2024-01-23T17:30:04Z</time>
      </trkpt>
      <trkpt lat="48.7042" lon="7.14257">
        <ele>349.1</ele>
        <time>2024-01-23T17:30:10Z</time>
      </trkpt>
      <trkpt lat="48.70432" lon="7.14233">
        <ele>349</ele>
        <time>2024-01-23T17:30:16Z</time>
      </trkpt>
      <trkpt lat="48.70445" lon="7.1421">
        <ele>348.9</ele>
        <time>2024-01-23T17:30:23Z</time>
      </trkpt>
      <trkpt lat="48.70458" lon="7.14189">
        <ele>348.8</ele>
        <time>2024-01-23T17:30:29Z</time>
      </trkpt>
      <trkpt lat="48.70473" lon="7.14168">
        <ele>348.7</ele>
        <time>2024-01-23T17:30:36Z</time>
      </trkpt>
      <trkpt lat="48.70487" lon="7.14147">
        <ele>348.5</ele>
        <time>2024-01-23T17:30:43Z</time>
      </trkpt>
      <trkpt lat="48.70499" lon="7.14127">
        <ele>348.2</ele>
        <time>2024-01-23T17:30:49Z</time>
      </trkpt>
      <trkpt lat="48.70514" lon="7.14111">
        <ele>347.7</ele>
        <time>2024-01-23T17:30:55Z</time>
      </trkpt>
      <trkpt lat="48.70527" lon="7.1409">
        <ele>347.3</ele>
        <time>2024-01-23T17:31:01Z</time>
      </trkpt>
      <trkpt lat="48.70541" lon="7.14069">
        <ele>346.9</ele>
        <time>2024-01-23T17:31:07Z</time>
      </trkpt>
      <trkpt lat="48.70555" lon="7.14048">
        <ele>346.5</ele>
        <time>2024-01-23T17:31:14Z</time>
      </trkpt>
      <trkpt lat="48.70571" lon="7.14029">
        <ele>346.2</ele>
        <time>2024-01-23T17:31:21Z</time>
      </trkpt>
      <trkpt lat="48.70586" lon="7.1401">
        <ele>345.8</ele>
        <time>2024-01-23T17:31:27Z</time>
      </trkpt>
      <trkpt lat="48.70599" lon="7.13991">
        <ele>345.4</ele>
        <time>2024-01-23T17:31:33Z</time>
      </trkpt>
      <trkpt lat="48.70612" lon="7.13969">
        <ele>345.1</ele>
        <time>2024-01-23T17:31:39Z</time>
      </trkpt>
      <trkpt lat="48.70625" lon="7.13948">
        <ele>344.8</ele>
        <time>2024-01-23T17:31:45Z</time>
      </trkpt>
      <trkpt lat="48.70638" lon="7.13926">
        <ele>344.4</ele>
        <time>2024-01-23T17:31:51Z</time>
      </trkpt>
      <trkpt lat="48.70651" lon="7.13904">
        <ele>344.1</ele>
        <time>2024-01-23T17:31:57Z</time>
      </trkpt>
      <trkpt lat="48.70666" lon="7.13886">
        <ele>344.2</ele>
        <time>2024-01-23T17:32:03Z</time>
      </trkpt>
      <trkpt lat="48.7068" lon="7.13866">
        <ele>344.8</ele>
        <time>2024-01-23T17:32:09Z</time>
      </trkpt>
      <trkpt lat="48.70693" lon="7.13846">
        <ele>345.5</ele>
        <time>2024-01-23T17:32:15Z</time>
      </trkpt>
      <trkpt lat="48.70708" lon="7.13827">
        <ele>346.4</ele>
        <time>2024-01-23T17:32:22Z</time>
      </trkpt>
      <trkpt lat="48.70723" lon="7.13804">
        <ele>347.5</ele>
        <time>2024-01-23T17:32:29Z</time>
      </trkpt>
      <trkpt lat="48.70737" lon="7.13782">
        <ele>348.4</ele>
        <time>2024-01-23T17:32:36Z</time>
      </trkpt>
      <trkpt lat="48.7075" lon="7.1376">
        <ele>349.1</ele>
        <time>2024-01-23T17:32:43Z</time>
      </trkpt>
      <trkpt lat="48.70765" lon="7.1374">
        <ele>349.9</ele>
        <time>2024-01-23T17:32:51Z</time>
      </trkpt>
      <trkpt lat="48.70779" lon="7.13721">
        <ele>350.4</ele>
        <time>2024-01-23T17:32:58Z</time>
      </trkpt>
      <trkpt lat="48.70793" lon="7.137">
        <ele>351</ele>
        <time>2024-01-23T17:33:06Z</time>
      </trkpt>
      <trkpt lat="48.70809" lon="7.13681">
        <ele>351.4</ele>
        <time>2024-01-23T17:33:13Z</time>
      </trkpt>
      <trkpt lat="48.70824" lon="7.13664">
        <ele>351.5</ele>
        <time>2024-01-23T17:33:19Z</time>
      </trkpt>
      <trkpt lat="48.70839" lon="7.13644">
        <ele>351.7</ele>
        <time>2024-01-23T17:33:26Z</time>
      </trkpt>
      <trkpt lat="48.70852" lon="7.13624">
        <ele>351.7</ele>
        <time>2024-01-23T17:33:32Z</time>
      </trkpt>
      <trkpt lat="48.70867" lon="7.13604">
        <ele>351.6</ele>
        <time>2024-01-23T17:33:39Z</time>
      </trkpt>
      <trkpt lat="48.70882" lon="7.13584">
        <ele>351.5</ele>
        <time>2024-01-23T17:33:46Z</time>
      </trkpt>
      <trkpt lat="48.70897" lon="7.13565">
        <ele>351.3</ele>
        <time>2024-01-23T17:33:52Z</time>
      </trkpt>
      <trkpt lat="48.70912" lon="7.13547">
        <ele>351.3</ele>
        <time>2024-01-23T17:33:59Z</time>
      </trkpt>
      <trkpt lat="48.70928" lon="7.13525">
        <ele>351.1</ele>
        <time>2024-01-23T17:34:06Z</time>
      </trkpt>
      <trkpt lat="48.70942" lon="7.13506">
        <ele>351</ele>
        <time>2024-01-23T17:34:12Z</time>
      </trkpt>
      <trkpt lat="48.70955" lon="7.13485">
        <ele>351</ele>
        <time>2024-01-23T17:34:18Z</time>
      </trkpt>
      <trkpt lat="48.70968" lon="7.13461">
        <ele>350.8</ele>
        <time>2024-01-23T17:34:25Z</time>
      </trkpt>
      <trkpt lat="48.70982" lon="7.13442">
        <ele>350.7</ele>
        <time>2024-01-23T17:34:31Z</time>
      </trkpt>
      <trkpt lat="48.70995" lon="7.13422">
        <ele>350.7</ele>
        <time>2024-01-23T17:34:37Z</time>
      </trkpt>
      <trkpt lat="48.71011" lon="7.13402">
        <ele>350.4</ele>
        <time>2024-01-23T17:34:44Z</time>
      </trkpt>
      <trkpt lat="48.71024" lon="7.13381">
        <ele>350.1</ele>
        <time>2024-01-23T17:34:50Z</time>
      </trkpt>
      <trkpt lat="48.71037" lon="7.13356">
        <ele>349.8</ele>
        <time>2024-01-23T17:34:57Z</time>
      </trkpt>
      <trkpt lat="48.71049" lon="7.13336">
        <ele>349.4</ele>
        <time>2024-01-23T17:35:03Z</time>
      </trkpt>
      <trkpt lat="48.71064" lon="7.13317">
        <ele>349</ele>
        <time>2024-01-23T17:35:09Z</time>
      </trkpt>
      <trkpt lat="48.71079" lon="7.13297">
        <ele>348.4</ele>
        <time>2024-01-23T17:35:15Z</time>
      </trkpt>
      <trkpt lat="48.71093" lon="7.13276">
        <ele>347.8</ele>
        <time>2024-01-23T17:35:21Z</time>
      </trkpt>
      <trkpt lat="48.71107" lon="7.13258">
        <ele>347.3</ele>
        <time>2024-01-23T17:35:27Z</time>
      </trkpt>
      <trkpt lat="48.7112" lon="7.13237">
        <ele>346.6</ele>
        <time>2024-01-23T17:35:33Z</time>
      </trkpt>
      <trkpt lat="48.71136" lon="7.13216">
        <ele>345.7</ele>
        <time>2024-01-23T17:35:39Z</time>
      </trkpt>
      <trkpt lat="48.71151" lon="7.13197">
        <ele>344.8</ele>
        <time>2024-01-23T17:35:45Z</time>
      </trkpt>
      <trkpt lat="48.71165" lon="7.13179">
        <ele>344.1</ele>
        <time>2024-01-23T17:35:51Z</time>
      </trkpt>
      <trkpt lat="48.71179" lon="7.13157">
        <ele>343.5</ele>
        <time>2024-01-23T17:35:58Z</time>
      </trkpt>
      <trkpt lat="48.71193" lon="7.13137">
        <ele>342.9</ele>
        <time>2024-01-23T17:36:04Z</time>
      </trkpt>
      <trkpt lat="48.71208" lon="7.13117">
        <ele>342.4</ele>
        <time>2024-01-23T17:36:11Z</time>
      </trkpt>
      <trkpt lat="48.71221" lon="7.13096">
        <ele>341.9</ele>
        <time>2024-01-23T17:36:17Z</time>
      </trkpt>
      <trkpt lat="48.71235" lon="7.13073">
        <ele>341.5</ele>
        <time>2024-01-23T17:36:24Z</time>
      </trkpt>
      <trkpt lat="48.7125" lon="7.13055">
        <ele>341.2</ele>
        <time>2024-01-23T17:36:30Z</time>
      </trkpt>
      <trkpt lat="48.71265" lon="7.13036">
        <ele>341</ele>
        <time>2024-01-23T17:36:36Z</time>
      </trkpt>
      <trkpt lat="48.71281" lon="7.13018">
        <ele>341</ele>
        <time>2024-01-23T17:36:42Z</time>
      </trkpt>
      <trkpt lat="48.71298" lon="7.12998">
        <ele>341</ele>
        <time>2024-01-23T17:36:48Z</time>
      </trkpt>
      <trkpt lat="48.71311" lon="7.12979">
        <ele>340.9</ele>
        <time>2024-01-23T17:36:54Z</time>
      </trkpt>
      <trkpt lat="48.71326" lon="7.12958">
        <ele>340.8</ele>
        <time>2024-01-23T17:37:01Z</time>
      </trkpt>
      <trkpt lat="48.71341" lon="7.12939">
        <ele>340.5</ele>
        <time>2024-01-23T17:37:07Z</time>
      </trkpt>
      <trkpt lat="48.71355" lon="7.12918">
        <ele>340.2</ele>
        <time>2024-01-23T17:37:13Z</time>
      </trkpt>
      <trkpt lat="48.71368" lon="7.12898">
        <ele>339</ele>
        <time>2024-01-23T17:37:19Z</time>
      </trkpt>
      <trkpt lat="48.71381" lon="7.12879">
        <ele>338.2</ele>
        <time>2024-01-23T17:37:25Z</time>
      </trkpt>
      <trkpt lat="48.71395" lon="7.12857">
        <ele>336.5</ele>
        <time>2024-01-23T17:37:31Z</time>
      </trkpt>
      <trkpt lat="48.71409" lon="7.12835">
        <ele>334.6</ele>
        <time>2024-01-23T17:37:37Z</time>
      </trkpt>
      <trkpt lat="48.71424" lon="7.12813">
        <ele>332.7</ele>
        <time>2024-01-23T17:37:43Z</time>
      </trkpt>
      <trkpt lat="48.71436" lon="7.12792">
        <ele>330.9</ele>
        <time>2024-01-23T17:37:48Z</time>
      </trkpt>
      <trkpt lat="48.7145" lon="7.1277">
        <ele>328.6</ele>
        <time>2024-01-23T17:37:54Z</time>
      </trkpt>
      <trkpt lat="48.71466" lon="7.12748">
        <ele>326.2</ele>
        <time>2024-01-23T17:38:00Z</time>
      </trkpt>
      <trkpt lat="48.71479" lon="7.12724">
        <ele>324.1</ele>
        <time>2024-01-23T17:38:06Z</time>
      </trkpt>
      <trkpt lat="48.71484" lon="7.12697">
        <ele>322.7</ele>
        <time>2024-01-23T17:38:12Z</time>
      </trkpt>
      <trkpt lat="48.7148" lon="7.12666">
        <ele>321.4</ele>
        <time>2024-01-23T17:38:19Z</time>
      </trkpt>
      <trkpt lat="48.71475" lon="7.12636">
        <ele>320.3</ele>
        <time>2024-01-23T17:38:26Z</time>
      </trkpt>
      <trkpt lat="48.71472" lon="7.12606">
        <ele>319.2</ele>
        <time>2024-01-23T17:38:33Z</time>
      </trkpt>
      <trkpt lat="48.7147" lon="7.12577">
        <ele>318</ele>
        <time>2024-01-23T17:38:39Z</time>
      </trkpt>
      <trkpt lat="48.71467" lon="7.12547">
        <ele>316.7</ele>
        <time>2024-01-23T17:38:45Z</time>
      </trkpt>
      <trkpt lat="48.71464" lon="7.12516">
        <ele>315.2</ele>
        <time>2024-01-23T17:38:51Z</time>
      </trkpt>
      <trkpt lat="48.71463" lon="7.12489">
        <ele>313.8</ele>
        <time>2024-01-23T17:38:56Z</time>
      </trkpt>
      <trkpt lat="48.71459" lon="7.12457">
        <ele>312.2</ele>
        <time>2024-01-23T17:39:02Z</time>
      </trkpt>
      <trkpt lat="48.71457" lon="7.12428">
        <ele>310.7</ele>
        <time>2024-01-23T17:39:08Z</time>
      </trkpt>
      <trkpt lat="48.71451" lon="7.12398">
        <ele>309.2</ele>
        <time>2024-01-23T17:39:14Z</time>
      </trkpt>
      <trkpt lat="48.71449" lon="7.12369">
        <ele>307.5</ele>
        <time>2024-01-23T17:39:20Z</time>
      </trkpt>
      <trkpt lat="48.71447" lon="7.1234">
        <ele>305.7</ele>
        <time>2024-01-23T17:39:26Z</time>
      </trkpt>
      <trkpt lat="48.71446" lon="7.12312">
        <ele>303.7</ele>
        <time>2024-01-23T17:39:32Z</time>
      </trkpt>
      <trkpt lat="48.71449" lon="7.12282">
        <ele>301.3</ele>
        <time>2024-01-23T17:39:37Z</time>
      </trkpt>
      <trkpt lat="48.7145" lon="7.12251">
        <ele>298.8</ele>
        <time>2024-01-23T17:39:42Z</time>
      </trkpt>
      <trkpt lat="48.7145" lon="7.12221">
        <ele>296.2</ele>
        <time>2024-01-23T17:39:47Z</time>
      </trkpt>
      <trkpt lat="48.71449" lon="7.12193">
        <ele>293.7</ele>
        <time>2024-01-23T17:39:52Z</time>
      </trkpt>
      <trkpt lat="48.71452" lon="7.12164">
        <ele>291.4</ele>
        <time>2024-01-23T17:39:57Z</time>
      </trkpt>
      <trkpt lat="48.71453" lon="7.12132">
        <ele>289.1</ele>
        <time>2024-01-23T17:40:03Z</time>
      </trkpt>
      <trkpt lat="48.71453" lon="7.121">
        <ele>287</ele>
        <time>2024-01-23T17:40:09Z</time>
      </trkpt>
      <trkpt lat="48.71454" lon="7.12072">
        <ele>285</ele>
        <time>2024-01-23T17:40:14Z</time>
      </trkpt>
      <trkpt lat="48.71454" lon="7.12043">
        <ele>283.1</ele>
        <time>2024-01-23T17:40:19Z</time>
      </trkpt>
      <trkpt lat="48.71454" lon="7.12014">
        <ele>281.2</ele>
        <time>2024-01-23T17:40:24Z</time>
      </trkpt>
      <trkpt lat="48.71455" lon="7.11987">
        <ele>279.5</ele>
        <time>2024-01-23T17:40:29Z</time>
      </trkpt>
      <trkpt lat="48.71454" lon="7.11957">
        <ele>279</ele>
        <time>2024-01-23T17:40:34Z</time>
      </trkpt>
      <trkpt lat="48.71451" lon="7.11929">
        <ele>279.4</ele>
        <time>2024-01-23T17:40:39Z</time>
      </trkpt>
      <trkpt lat="48.71442" lon="7.119">
        <ele>279.8</ele>
        <time>2024-01-23T17:40:45Z</time>
      </trkpt>
      <trkpt lat="48.71444" lon="7.11877">
        <ele>278.2</ele>
        <time>2024-01-23T17:40:51Z</time>
      </trkpt>
      <trkpt lat="48.71462" lon="7.11871">
        <ele>277.5</ele>
        <time>2024-01-23T17:40:58Z</time>
      </trkpt>
      <trkpt lat="48.7148" lon="7.11866">
        <ele>277</ele>
        <time>2024-01-23T17:41:05Z</time>
      </trkpt>
      <trkpt lat="48.71499" lon="7.1187">
        <ele>276.8</ele>
        <time>2024-01-23T17:41:13Z</time>
      </trkpt>
      <trkpt lat="48.71519" lon="7.11871">
        <ele>276</ele>
        <time>2024-01-23T17:41:20Z</time>
      </trkpt>
      <trkpt lat="48.7154" lon="7.1187">
        <ele>274.3</ele>
        <time>2024-01-23T17:41:26Z</time>
      </trkpt>
      <trkpt lat="48.71559" lon="7.1187">
        <ele>272.4</ele>
        <time>2024-01-23T17:41:32Z</time>
      </trkpt>
      <trkpt lat="48.71577" lon="7.1187">
        <ele>270.3</ele>
        <time>2024-01-23T17:41:38Z</time>
      </trkpt>
      <trkpt lat="48.71598" lon="7.11873">
        <ele>268.8</ele>
        <time>2024-01-23T17:41:45Z</time>
      </trkpt>
      <trkpt lat="48.71617" lon="7.11875">
        <ele>268.4</ele>
        <time>2024-01-23T17:41:51Z</time>
      </trkpt>
      <trkpt lat="48.71637" lon="7.11876">
        <ele>268.5</ele>
        <time>2024-01-23T17:41:58Z</time>
      </trkpt>
      <trkpt lat="48.71658" lon="7.11877">
        <ele>268.1</ele>
        <time>2024-01-23T17:42:05Z</time>
      </trkpt>
      <trkpt lat="48.71676" lon="7.11879">
        <ele>267.5</ele>
        <time>2024-01-23T17:42:11Z</time>
      </trkpt>
      <trkpt lat="48.71696" lon="7.11886">
        <ele>265.9</ele>
        <time>2024-01-23T17:42:18Z</time>
      </trkpt>
      <trkpt lat="48.71716" lon="7.1189">
        <ele>265</ele>
        <time>2024-01-23T17:42:25Z</time>
      </trkpt>
      <trkpt lat="48.71734" lon="7.119">
        <ele>265.4</ele>
        <time>2024-01-23T17:42:31Z</time>
      </trkpt>
      <trkpt lat="48.71752" lon="7.11908">
        <ele>265.8</ele>
        <time>2024-01-23T17:42:37Z</time>
      </trkpt>
      <trkpt lat="48.71771" lon="7.1191">
        <ele>266.2</ele>
        <time>2024-01-23T17:42:44Z</time>
      </trkpt>
      <trkpt lat="48.71792" lon="7.1191">
        <ele>267</ele>
        <time>2024-01-23T17:42:51Z</time>
      </trkpt>
      <trkpt lat="48.71811" lon="7.11912">
        <ele>267.4</ele>
        <time>2024-01-23T17:42:58Z</time>
      </trkpt>
      <trkpt lat="48.7183" lon="7.11905">
        <ele>266.9</ele>
        <time>2024-01-23T17:43:05Z</time>
      </trkpt>
      <trkpt lat="48.71848" lon="7.11914">
        <ele>267.3</ele>
        <time>2024-01-23T17:43:11Z</time>
      </trkpt>
      <trkpt lat="48.71861" lon="7.11933">
        <ele>267.5</ele>
        <time>2024-01-23T17:43:17Z</time>
      </trkpt>
      <trkpt lat="48.71878" lon="7.11947">
        <ele>267.8</ele>
        <time>2024-01-23T17:43:24Z</time>
      </trkpt>
      <trkpt lat="48.71892" lon="7.11967">
        <ele>268.3</ele>
        <time>2024-01-23T17:43:31Z</time>
      </trkpt>
      <trkpt lat="48.71902" lon="7.1199">
        <ele>269</ele>
        <time>2024-01-23T17:43:38Z</time>
      </trkpt>
      <trkpt lat="48.71908" lon="7.12016">
        <ele>269.7</ele>
        <time>2024-01-23T17:43:45Z</time>
      </trkpt>
      <trkpt lat="48.71912" lon="7.12044">
        <ele>270.2</ele>
        <time>2024-01-23T17:43:52Z</time>
      </trkpt>
      <trkpt lat="48.71916" lon="7.12074">
        <ele>270.6</ele>
        <time>2024-01-23T17:43:59Z</time>
      </trkpt>
      <trkpt lat="48.71922" lon="7.121">
        <ele>271</ele>
        <time>2024-01-23T17:44:07Z</time>
      </trkpt>
      <trkpt lat="48.71925" lon="7.12127">
        <ele>271.3</ele>
        <time>2024-01-23T17:44:14Z</time>
      </trkpt>
      <trkpt lat="48.71928" lon="7.12157">
        <ele>271.6</ele>
        <time>2024-01-23T17:44:22Z</time>
      </trkpt>
      <trkpt lat="48.7193" lon="7.12187">
        <ele>272</ele>
        <time>2024-01-23T17:44:30Z</time>
      </trkpt>
      <trkpt lat="48.7193" lon="7.12215">
        <ele>272.4</ele>
        <time>2024-01-23T17:44:37Z</time>
      </trkpt>
      <trkpt lat="48.71929" lon="7.12246">
        <ele>272.9</ele>
        <time>2024-01-23T17:44:44Z</time>
      </trkpt>
      <trkpt lat="48.71931" lon="7.12277">
        <ele>273.4</ele>
        <time>2024-01-23T17:44:51Z</time>
      </trkpt>
      <trkpt lat="48.71935" lon="7.12305">
        <ele>273.9</ele>
        <time>2024-01-23T17:44:57Z</time>
      </trkpt>
      <trkpt lat="48.71939" lon="7.12333">
        <ele>274.5</ele>
        <time>2024-01-23T17:45:04Z</time>
      </trkpt>
      <trkpt lat="48.71944" lon="7.12363">
        <ele>275.1</ele>
        <time>2024-01-23T17:45:12Z</time>
      </trkpt>
      <trkpt lat="48.71949" lon="7.12391">
        <ele>275.7</ele>
        <time>2024-01-23T17:45:19Z</time>
      </trkpt>
      <trkpt lat="48.71952" lon="7.1242">
        <ele>276.4</ele>
        <time>2024-01-23T17:45:26Z</time>
      </trkpt>
      <trkpt lat="48.71955" lon="7.12447">
        <ele>277.1</ele>
        <time>2024-01-23T17:45:33Z</time>
      </trkpt>
      <trkpt lat="48.71956" lon="7.12475">
        <ele>277.7</ele>
        <time>2024-01-23T17:45:40Z</time>
      </trkpt>
      <trkpt lat="48.7196" lon="7.12502">
        <ele>278.3</ele>
        <time>2024-01-23T17:45:47Z</time>
      </trkpt>
      <trkpt lat="48.71973" lon="7.12518">
        <ele>278.3</ele>
        <time>2024-01-23T17:45:54Z</time>
      </trkpt>
      <trkpt lat="48.71991" lon="7.12501">
        <ele>277.9</ele>
        <time>2024-01-23T17:46:01Z</time>
      </trkpt>
      <trkpt lat="48.72006" lon="7.12481">
        <ele>277.6</ele>
        <time>2024-01-23T17:46:07Z</time>
      </trkpt>
      <trkpt lat="48.72023" lon="7.12483">
        <ele>277.9</ele>
        <time>2024-01-23T17:46:15Z</time>
      </trkpt>
      <trkpt lat="48.72029" lon="7.12509">
        <ele>278.4</ele>
        <time>2024-01-23T17:46:23Z</time>
      </trkpt>
      <trkpt lat="48.72035" lon="7.12538">
        <ele>279.1</ele>
        <time>2024-01-23T17:46:32Z</time>
      </trkpt>
      <trkpt lat="48.72039" lon="7.12566">
        <ele>279.9</ele>
        <time>2024-01-23T17:46:40Z</time>
      </trkpt>
      <trkpt lat="48.72042" lon="7.12594">
        <ele>280.5</ele>
        <time>2024-01-23T17:46:49Z</time>
      </trkpt>
      <trkpt lat="48.72048" lon="7.12622">
        <ele>281.1</ele>
        <time>2024-01-23T17:46:57Z</time>
      </trkpt>
      <trkpt lat="48.72051" lon="7.1265">
        <ele>281.6</ele>
        <time>2024-01-23T17:47:06Z</time>
      </trkpt>
      <trkpt lat="48.7205" lon="7.12679">
        <ele>282</ele>
        <time>2024-01-23T17:47:13Z</time>
      </trkpt>
      <trkpt lat="48.72053" lon="7.12707">
        <ele>282.3</ele>
        <time>2024-01-23T17:47:22Z</time>
      </trkpt>
      <trkpt lat="48.72056" lon="7.12737">
        <ele>282.6</ele>
        <time>2024-01-23T17:47:30Z</time>
      </trkpt>
      <trkpt lat="48.72059" lon="7.12768">
        <ele>282.9</ele>
        <time>2024-01-23T17:47:36Z</time>
      </trkpt>
      <trkpt lat="48.72069" lon="7.12793">
        <ele>283.1</ele>
        <time>2024-01-23T17:47:43Z</time>
      </trkpt>
      <trkpt lat="48.72079" lon="7.12816">
        <ele>283.3</ele>
        <time>2024-01-23T17:47:49Z</time>
      </trkpt>
      <trkpt lat="48.7209" lon="7.12839">
        <ele>283.6</ele>
        <time>2024-01-23T17:47:56Z</time>
      </trkpt>
      <trkpt lat="48.72103" lon="7.12859">
        <ele>283.9</ele>
        <time>2024-01-23T17:48:03Z</time>
      </trkpt>
      <trkpt lat="48.72121" lon="7.12867">
        <ele>284.2</ele>
        <time>2024-01-23T17:48:09Z</time>
      </trkpt>
      <trkpt lat="48.7214" lon="7.12866">
        <ele>284.3</ele>
        <time>2024-01-23T17:48:17Z</time>
      </trkpt>
      <trkpt lat="48.72162" lon="7.12873">
        <ele>284.5</ele>
        <time>2024-01-23T17:48:23Z</time>
      </trkpt>
      <trkpt lat="48.72179" lon="7.12885">
        <ele>284.8</ele>
        <time>2024-01-23T17:48:28Z</time>
      </trkpt>
      <trkpt lat="48.72196" lon="7.12904">
        <ele>285.7</ele>
        <time>2024-01-23T17:48:34Z</time>
      </trkpt>
      <trkpt lat="48.72209" lon="7.12923">
        <ele>286.6</ele>
        <time>2024-01-23T17:48:40Z</time>
      </trkpt>
      <trkpt lat="48.7222" lon="7.12945">
        <ele>287.3</ele>
        <time>2024-01-23T17:48:47Z</time>
      </trkpt>
      <trkpt lat="48.72232" lon="7.12969">
        <ele>288.1</ele>
        <time>2024-01-23T17:48:56Z</time>
      </trkpt>
      <trkpt lat="48.72244" lon="7.1299">
        <ele>288.8</ele>
        <time>2024-01-23T17:49:06Z</time>
      </trkpt>
      <trkpt lat="48.72254" lon="7.13013">
        <ele>289.5</ele>
        <time>2024-01-23T17:49:12Z</time>
      </trkpt>
      <trkpt lat="48.72265" lon="7.13036">
        <ele>290.1</ele>
        <time>2024-01-23T17:49:20Z</time>
      </trkpt>
      <trkpt lat="48.72278" lon="7.13059">
        <ele>290.7</ele>
        <time>2024-01-23T17:49:29Z</time>
      </trkpt>
      <trkpt lat="48.72289" lon="7.13084">
        <ele>291.2</ele>
        <time>2024-01-23T17:49:38Z</time>
      </trkpt>
      <trkpt lat="48.72301" lon="7.13105">
        <ele>291.7</ele>
        <time>2024-01-23T17:49:44Z</time>
      </trkpt>
      <trkpt lat="48.72313" lon="7.13126">
        <ele>292</ele>
        <time>2024-01-23T17:49:50Z</time>
      </trkpt>
      <trkpt lat="48.72325" lon="7.13154">
        <ele>292.3</ele>
        <time>2024-01-23T17:49:57Z</time>
      </trkpt>
      <trkpt lat="48.72334" lon="7.13178">
        <ele>292.3</ele>
        <time>2024-01-23T17:50:03Z</time>
      </trkpt>
      <trkpt lat="48.72346" lon="7.13202">
        <ele>292.1</ele>
        <time>2024-01-23T17:50:10Z</time>
      </trkpt>
      <trkpt lat="48.72358" lon="7.13225">
        <ele>291.7</ele>
        <time>2024-01-23T17:50:17Z</time>
      </trkpt>
      <trkpt lat="48.72369" lon="7.13248">
        <ele>291.1</ele>
        <time>2024-01-23T17:50:24Z</time>
      </trkpt>
      <trkpt lat="48.72374" lon="7.13277">
        <ele>290.3</ele>
        <time>2024-01-23T17:50:30Z</time>
      </trkpt>
      <trkpt lat="48.72372" lon="7.13304">
        <ele>289.5</ele>
        <time>2024-01-23T17:50:35Z</time>
      </trkpt>
      <trkpt lat="48.72367" lon="7.13333">
        <ele>288.5</ele>
        <time>2024-01-23T17:50:42Z</time>
      </trkpt>
      <trkpt lat="48.72364" lon="7.13365">
        <ele>287.4</ele>
        <time>2024-01-23T17:50:48Z</time>
      </trkpt>
      <trkpt lat="48.72364" lon="7.13397">
        <ele>286.6</ele>
        <time>2024-01-23T17:50:54Z</time>
      </trkpt>
      <trkpt lat="48.72368" lon="7.13428">
        <ele>286.1</ele>
        <time>2024-01-23T17:51:00Z</time>
      </trkpt>
      <trkpt lat="48.72371" lon="7.13455">
        <ele>286</ele>
        <time>2024-01-23T17:51:06Z</time>
      </trkpt>
      <trkpt lat="48.72366" lon="7.13486">
        <ele>285.6</ele>
        <time>2024-01-23T17:51:12Z</time>
      </trkpt>
      <trkpt lat="48.72365" lon="7.13513">
        <ele>285.3</ele>
        <time>2024-01-23T17:51:18Z</time>
      </trkpt>
      <trkpt lat="48.72362" lon="7.13541">
        <ele>285.1</ele>
        <time>2024-01-23T17:51:25Z</time>
      </trkpt>
      <trkpt lat="48.72357" lon="7.13571">
        <ele>284.9</ele>
        <time>2024-01-23T17:51:33Z</time>
      </trkpt>
      <trkpt lat="48.72359" lon="7.13579">
        <ele>284.8</ele>
        <time>2024-01-23T17:51:34Z</time>
      </trkpt>
      <trkpt lat="48.72363" lon="7.13608">
        <ele>284.7</ele>
        <time>2024-01-23T17:51:42Z</time>
      </trkpt>
      <trkpt lat="48.72366" lon="7.13636">
        <ele>284.6</ele>
        <time>2024-01-23T17:51:49Z</time>
      </trkpt>
      <trkpt lat="48.72372" lon="7.13662">
        <ele>284.6</ele>
        <time>2024-01-23T17:51:57Z</time>
      </trkpt>
      <trkpt lat="48.72374" lon="7.13692">
        <ele>284.6</ele>
        <time>2024-01-23T17:52:05Z</time>
      </trkpt>
      <trkpt lat="48.72381" lon="7.13721">
        <ele>284.7</ele>
        <time>2024-01-23T17:52:11Z</time>
      </trkpt>
      <trkpt lat="48.7239" lon="7.13747">
        <ele>284.8</ele>
        <time>2024-01-23T17:52:17Z</time>
      </trkpt>
      <trkpt lat="48.72398" lon="7.13773">
        <ele>284.9</ele>
        <time>2024-01-23T17:52:23Z</time>
      </trkpt>
      <trkpt lat="48.72407" lon="7.13799">
        <ele>285</ele>
        <time>2024-01-23T17:52:30Z</time>
      </trkpt>
      <trkpt lat="48.72415" lon="7.13827">
        <ele>285</ele>
        <time>2024-01-23T17:52:37Z</time>
      </trkpt>
      <trkpt lat="48.72424" lon="7.13855">
        <ele>285</ele>
        <time>2024-01-23T17:52:44Z</time>
      </trkpt>
      <trkpt lat="48.72432" lon="7.13883">
        <ele>285</ele>
        <time>2024-01-23T17:52:50Z</time>
      </trkpt>
      <trkpt lat="48.7244" lon="7.13909">
        <ele>285.1</ele>
        <time>2024-01-23T17:52:56Z</time>
      </trkpt>
      <trkpt lat="48.72448" lon="7.13936">
        <ele>285.2</ele>
        <time>2024-01-23T17:53:03Z</time>
      </trkpt>
      <trkpt lat="48.72456" lon="7.13964">
        <ele>285.3</ele>
        <time>2024-01-23T17:53:10Z</time>
      </trkpt>
      <trkpt lat="48.72464" lon="7.13991">
        <ele>285.6</ele>
        <time>2024-01-23T17:53:17Z</time>
      </trkpt>
      <trkpt lat="48.72473" lon="7.14016">
        <ele>285.9</ele>
        <time>2024-01-23T17:53:24Z</time>
      </trkpt>
      <trkpt lat="48.72479" lon="7.14045">
        <ele>286.1</ele>
        <time>2024-01-23T17:53:32Z</time>
      </trkpt>
      <trkpt lat="48.72483" lon="7.14075">
        <ele>286.3</ele>
        <time>2024-01-23T17:53:40Z</time>
      </trkpt>
      <trkpt lat="48.72483" lon="7.14102">
        <ele>286.6</ele>
        <time>2024-01-23T17:53:46Z</time>
      </trkpt>
      <trkpt lat="48.7248" lon="7.14131">
        <ele>287.2</ele>
        <time>2024-01-23T17:53:53Z</time>
      </trkpt>
      <trkpt lat="48.72473" lon="7.1416">
        <ele>287.8</ele>
        <time>2024-01-23T17:53:59Z</time>
      </trkpt>
      <trkpt lat="48.72464" lon="7.14189">
        <ele>288.1</ele>
        <time>2024-01-23T17:54:05Z</time>
      </trkpt>
      <trkpt lat="48.72455" lon="7.14212">
        <ele>288.5</ele>
        <time>2024-01-23T17:54:11Z</time>
      </trkpt>
      <trkpt lat="48.72445" lon="7.14236">
        <ele>288.8</ele>
        <time>2024-01-23T17:54:17Z</time>
      </trkpt>
      <trkpt lat="48.72434" lon="7.14261">
        <ele>289.3</ele>
        <time>2024-01-23T17:54:24Z</time>
      </trkpt>
      <trkpt lat="48.72424" lon="7.14286">
        <ele>289.8</ele>
        <time>2024-01-23T17:54:31Z</time>
      </trkpt>
      <trkpt lat="48.72413" lon="7.1431">
        <ele>290.1</ele>
        <time>2024-01-23T17:54:38Z</time>
      </trkpt>
      <trkpt lat="48.7241" lon="7.14336">
        <ele>290.4</ele>
        <time>2024-01-23T17:54:45Z</time>
      </trkpt>
      <trkpt lat="48.72422" lon="7.14357">
        <ele>290.7</ele>
        <time>2024-01-23T17:54:54Z</time>
      </trkpt>
      <trkpt lat="48.72435" lon="7.14378">
        <ele>291.1</ele>
        <time>2024-01-23T17:55:03Z</time>
      </trkpt>
      <trkpt lat="48.7245" lon="7.14398">
        <ele>291.6</ele>
        <time>2024-01-23T17:55:11Z</time>
      </trkpt>
      <trkpt lat="48.72462" lon="7.14419">
        <ele>291.9</ele>
        <time>2024-01-23T17:55:19Z</time>
      </trkpt>
      <trkpt lat="48.72474" lon="7.14444">
        <ele>292.2</ele>
        <time>2024-01-23T17:55:28Z</time>
      </trkpt>
      <trkpt lat="48.72484" lon="7.14467">
        <ele>292.4</ele>
        <time>2024-01-23T17:55:36Z</time>
      </trkpt>
      <trkpt lat="48.72496" lon="7.14493">
        <ele>292.5</ele>
        <time>2024-01-23T17:55:42Z</time>
      </trkpt>
      <trkpt lat="48.72506" lon="7.1452">
        <ele>292.7</ele>
        <time>2024-01-23T17:55:48Z</time>
      </trkpt>
      <trkpt lat="48.72506" lon="7.1455">
        <ele>293</ele>
        <time>2024-01-23T17:55:54Z</time>
      </trkpt>
      <trkpt lat="48.72507" lon="7.14579">
        <ele>293.6</ele>
        <time>2024-01-23T17:56:02Z</time>
      </trkpt>
      <trkpt lat="48.72506" lon="7.14609">
        <ele>294.5</ele>
        <time>2024-01-23T17:56:10Z</time>
      </trkpt>
      <trkpt lat="48.72503" lon="7.14637">
        <ele>295.3</ele>
        <time>2024-01-23T17:56:16Z</time>
      </trkpt>
      <trkpt lat="48.72503" lon="7.14666">
        <ele>295.9</ele>
        <time>2024-01-23T17:56:22Z</time>
      </trkpt>
      <trkpt lat="48.72501" lon="7.14694">
        <ele>296.6</ele>
        <time>2024-01-23T17:56:28Z</time>
      </trkpt>
      <trkpt lat="48.72499" lon="7.14723">
        <ele>297.2</ele>
        <time>2024-01-23T17:56:34Z</time>
      </trkpt>
      <trkpt lat="48.72498" lon="7.14752">
        <ele>297.9</ele>
        <time>2024-01-23T17:56:41Z</time>
      </trkpt>
      <trkpt lat="48.72492" lon="7.14782">
        <ele>298.7</ele>
        <time>2024-01-23T17:56:48Z</time>
      </trkpt>
      <trkpt lat="48.72489" lon="7.14788">
        <ele>299</ele>
        <time>2024-01-23T17:56:49Z</time>
      </trkpt>
      <trkpt lat="48.72474" lon="7.14811">
        <ele>299.9</ele>
        <time>2024-01-23T17:56:58Z</time>
      </trkpt>
      <trkpt lat="48.7246" lon="7.14827">
        <ele>300.8</ele>
        <time>2024-01-23T17:57:05Z</time>
      </trkpt>
      <trkpt lat="48.72444" lon="7.14844">
        <ele>302</ele>
        <time>2024-01-23T17:57:13Z</time>
      </trkpt>
      <trkpt lat="48.72429" lon="7.14862">
        <ele>303.2</ele>
        <time>2024-01-23T17:57:22Z</time>
      </trkpt>
      <trkpt lat="48.72413" lon="7.1488">
        <ele>304.5</ele>
        <time>2024-01-23T17:57:30Z</time>
      </trkpt>
      <trkpt lat="48.72398" lon="7.14898">
        <ele>305.7</ele>
        <time>2024-01-23T17:57:38Z</time>
      </trkpt>
      <trkpt lat="48.72382" lon="7.14917">
        <ele>307</ele>
        <time>2024-01-23T17:57:46Z</time>
      </trkpt>
      <trkpt lat="48.72366" lon="7.14933">
        <ele>308.1</ele>
        <time>2024-01-23T17:57:54Z</time>
      </trkpt>
      <trkpt lat="48.7235" lon="7.14952">
        <ele>309.3</ele>
        <time>2024-01-23T17:58:03Z</time>
      </trkpt>
      <trkpt lat="48.72337" lon="7.14971">
        <ele>310.4</ele>
        <time>2024-01-23T17:58:11Z</time>
      </trkpt>
      <trkpt lat="48.72323" lon="7.14989">
        <ele>311.7</ele>
        <time>2024-01-23T17:58:20Z</time>
      </trkpt>
      <trkpt lat="48.72308" lon="7.15008">
        <ele>313.3</ele>
        <time>2024-01-23T17:58:29Z</time>
      </trkpt>
      <trkpt lat="48.72293" lon="7.15026">
        <ele>314.9</ele>
        <time>2024-01-23T17:58:37Z</time>
      </trkpt>
      <trkpt lat="48.72277" lon="7.15042">
        <ele>316.4</ele>
        <time>2024-01-23T17:58:44Z</time>
      </trkpt>
      <trkpt lat="48.72262" lon="7.15057">
        <ele>317.7</ele>
        <time>2024-01-23T17:58:51Z</time>
      </trkpt>
      <trkpt lat="48.72247" lon="7.15073">
        <ele>319.1</ele>
        <time>2024-01-23T17:58:58Z</time>
      </trkpt>
      <trkpt lat="48.72232" lon="7.1509">
        <ele>320.7</ele>
        <time>2024-01-23T17:59:06Z</time>
      </trkpt>
      <trkpt lat="48.72215" lon="7.15103">
        <ele>322.4</ele>
        <time>2024-01-23T17:59:14Z</time>
      </trkpt>
      <trkpt lat="48.72199" lon="7.15116">
        <ele>324</ele>
        <time>2024-01-23T17:59:22Z</time>
      </trkpt>
      <trkpt lat="48.72181" lon="7.15126">
        <ele>325.5</ele>
        <time>2024-01-23T17:59:30Z</time>
      </trkpt>
      <trkpt lat="48.72165" lon="7.15139">
        <ele>326.9</ele>
        <time>2024-01-23T17:59:37Z</time>
      </trkpt>
      <trkpt lat="48.72148" lon="7.15151">
        <ele>328.3</ele>
        <time>2024-01-23T17:59:45Z</time>
      </trkpt>
      <trkpt lat="48.7213" lon="7.1516">
        <ele>329.7</ele>
        <time>2024-01-23T17:59:53Z</time>
      </trkpt>
      <trkpt lat="48.72128" lon="7.15155">
        <ele>329.9</ele>
        <time>2024-01-23T17:59:55Z</time>
      </trkpt>
      <trkpt lat="48.72129" lon="7.15127">
        <ele>330.2</ele>
        <time>2024-01-23T18:00:03Z</time>
      </trkpt>
      <trkpt lat="48.72126" lon="7.15097">
        <ele>330.4</ele>
        <time>2024-01-23T18:00:12Z</time>
      </trkpt>
      <trkpt lat="48.72113" lon="7.1508">
        <ele>330.7</ele>
        <time>2024-01-23T18:00:21Z</time>
      </trkpt>
      <trkpt lat="48.72095" lon="7.15089">
        <ele>331.3</ele>
        <time>2024-01-23T18:00:30Z</time>
      </trkpt>
      <trkpt lat="48.72076" lon="7.15097">
        <ele>332.3</ele>
        <time>2024-01-23T18:00:38Z</time>
      </trkpt>
      <trkpt lat="48.72058" lon="7.1511">
        <ele>333.5</ele>
        <time>2024-01-23T18:00:46Z</time>
      </trkpt>
      <trkpt lat="48.72039" lon="7.15123">
        <ele>334.5</ele>
        <time>2024-01-23T18:00:54Z</time>
      </trkpt>
      <trkpt lat="48.72021" lon="7.15132">
        <ele>335.4</ele>
        <time>2024-01-23T18:01:02Z</time>
      </trkpt>
      <trkpt lat="48.72003" lon="7.15145">
        <ele>336.3</ele>
        <time>2024-01-23T18:01:09Z</time>
      </trkpt>
      <trkpt lat="48.71984" lon="7.15151">
        <ele>337.1</ele>
        <time>2024-01-23T18:01:18Z</time>
      </trkpt>
      <trkpt lat="48.71965" lon="7.1516">
        <ele>338</ele>
        <time>2024-01-23T18:01:26Z</time>
      </trkpt>
      <trkpt lat="48.71947" lon="7.15167">
        <ele>338.7</ele>
        <time>2024-01-23T18:01:33Z</time>
      </trkpt>
      <trkpt lat="48.7193" lon="7.1518">
        <ele>339.5</ele>
        <time>2024-01-23T18:01:40Z</time>
      </trkpt>
      <trkpt lat="48.71913" lon="7.15195">
        <ele>340.4</ele>
        <time>2024-01-23T18:01:47Z</time>
      </trkpt>
      <trkpt lat="48.71897" lon="7.15213">
        <ele>341.5</ele>
        <time>2024-01-23T18:01:54Z</time>
      </trkpt>
      <trkpt lat="48.71881" lon="7.15229">
        <ele>342.6</ele>
        <time>2024-01-23T18:02:01Z</time>
      </trkpt>
      <trkpt lat="48.71866" lon="7.15246">
        <ele>343.7</ele>
        <time>2024-01-23T18:02:08Z</time>
      </trkpt>
      <trkpt lat="48.7185" lon="7.15261">
        <ele>344.5</ele>
        <time>2024-01-23T18:02:15Z</time>
      </trkpt>
      <trkpt lat="48.71833" lon="7.15275">
        <ele>345.2</ele>
        <time>2024-01-23T18:02:23Z</time>
      </trkpt>
      <trkpt lat="48.71818" lon="7.1529">
        <ele>345.9</ele>
        <time>2024-01-23T18:02:30Z</time>
      </trkpt>
      <trkpt lat="48.71802" lon="7.15306">
        <ele>346.4</ele>
        <time>2024-01-23T18:02:38Z</time>
      </trkpt>
      <trkpt lat="48.71788" lon="7.15327">
        <ele>346.1</ele>
        <time>2024-01-23T18:02:46Z</time>
      </trkpt>
      <trkpt lat="48.71777" lon="7.15354">
        <ele>345.7</ele>
        <time>2024-01-23T18:02:54Z</time>
      </trkpt>
      <trkpt lat="48.71766" lon="7.1538">
        <ele>345</ele>
        <time>2024-01-23T18:03:01Z</time>
      </trkpt>
      <trkpt lat="48.71756" lon="7.15404">
        <ele>344.3</ele>
        <time>2024-01-23T18:03:08Z</time>
      </trkpt>
      <trkpt lat="48.71746" lon="7.15429">
        <ele>343.4</ele>
        <time>2024-01-23T18:03:15Z</time>
      </trkpt>
      <trkpt lat="48.71735" lon="7.15455">
        <ele>342.5</ele>
        <time>2024-01-23T18:03:21Z</time>
      </trkpt>
      <trkpt lat="48.71725" lon="7.15478">
        <ele>341.7</ele>
        <time>2024-01-23T18:03:27Z</time>
      </trkpt>
      <trkpt lat="48.71714" lon="7.15504">
        <ele>340.9</ele>
        <time>2024-01-23T18:03:34Z</time>
      </trkpt>
      <trkpt lat="48.71703" lon="7.15531">
        <ele>340.2</ele>
        <time>2024-01-23T18:03:41Z</time>
      </trkpt>
      <trkpt lat="48.71693" lon="7.15557">
        <ele>339.7</ele>
        <time>2024-01-23T18:03:48Z</time>
      </trkpt>
      <trkpt lat="48.71684" lon="7.15583">
        <ele>339.2</ele>
        <time>2024-01-23T18:03:55Z</time>
      </trkpt>
      <trkpt lat="48.71676" lon="7.15609">
        <ele>338.8</ele>
        <time>2024-01-23T18:04:02Z</time>
      </trkpt>
      <trkpt lat="48.7167" lon="7.15634">
        <ele>338.5</ele>
        <time>2024-01-23T18:04:09Z</time>
      </trkpt>
      <trkpt lat="48.71666" lon="7.15663">
        <ele>338</ele>
        <time>2024-01-23T18:04:16Z</time>
      </trkpt>
      <trkpt lat="48.71665" lon="7.15693">
        <ele>337.6</ele>
        <time>2024-01-23T18:04:24Z</time>
      </trkpt>
      <trkpt lat="48.71667" lon="7.15721">
        <ele>337.3</ele>
        <time>2024-01-23T18:04:32Z</time>
      </trkpt>
      <trkpt lat="48.7167" lon="7.15748">
        <ele>337</ele>
        <time>2024-01-23T18:04:39Z</time>
      </trkpt>
      <trkpt lat="48.71672" lon="7.15778">
        <ele>336.7</ele>
        <time>2024-01-23T18:04:46Z</time>
      </trkpt>
      <trkpt lat="48.71672" lon="7.15805">
        <ele>336.5</ele>
        <time>2024-01-23T18:04:52Z</time>
      </trkpt>
      <trkpt lat="48.71672" lon="7.15833">
        <ele>336.4</ele>
        <time>2024-01-23T18:04:59Z</time>
      </trkpt>
      <trkpt lat="48.71672" lon="7.15862">
        <ele>336.1</ele>
        <time>2024-01-23T18:05:06Z</time>
      </trkpt>
      <trkpt lat="48.71672" lon="7.15891">
        <ele>335.8</ele>
        <time>2024-01-23T18:05:13Z</time>
      </trkpt>
      <trkpt lat="48.71672" lon="7.15918">
        <ele>335.4</ele>
        <time>2024-01-23T18:05:19Z</time>
      </trkpt>
      <trkpt lat="48.71674" lon="7.15949">
        <ele>334.9</ele>
        <time>2024-01-23T18:05:26Z</time>
      </trkpt>
      <trkpt lat="48.71683" lon="7.15976">
        <ele>334.2</ele>
        <time>2024-01-23T18:05:34Z</time>
      </trkpt>
      <trkpt lat="48.71701" lon="7.15981">
        <ele>333.2</ele>
        <time>2024-01-23T18:05:41Z</time>
      </trkpt>
      <trkpt lat="48.71721" lon="7.15979">
        <ele>332</ele>
        <time>2024-01-23T18:05:48Z</time>
      </trkpt>
      <trkpt lat="48.71739" lon="7.15979">
        <ele>330.6</ele>
        <time>2024-01-23T18:05:55Z</time>
      </trkpt>
      <trkpt lat="48.7176" lon="7.15982">
        <ele>328.9</ele>
        <time>2024-01-23T18:06:02Z</time>
      </trkpt>
      <trkpt lat="48.71779" lon="7.15983">
        <ele>327.4</ele>
        <time>2024-01-23T18:06:09Z</time>
      </trkpt>
      <trkpt lat="48.71799" lon="7.15984">
        <ele>325.8</ele>
        <time>2024-01-23T18:06:16Z</time>
      </trkpt>
      <trkpt lat="48.71812" lon="7.16004">
        <ele>324</ele>
        <time>2024-01-23T18:06:23Z</time>
      </trkpt>
      <trkpt lat="48.71816" lon="7.16032">
        <ele>322</ele>
        <time>2024-01-23T18:06:30Z</time>
      </trkpt>
      <trkpt lat="48.71815" lon="7.16062">
        <ele>319.4</ele>
        <time>2024-01-23T18:06:37Z</time>
      </trkpt>
      <trkpt lat="48.71816" lon="7.16094">
        <ele>316.1</ele>
        <time>2024-01-23T18:06:45Z</time>
      </trkpt>
      <trkpt lat="48.71816" lon="7.16123">
        <ele>313.3</ele>
        <time>2024-01-23T18:06:50Z</time>
      </trkpt>
      <trkpt lat="48.71815" lon="7.16155">
        <ele>310.5</ele>
        <time>2024-01-23T18:06:56Z</time>
      </trkpt>
      <trkpt lat="48.71812" lon="7.16183">
        <ele>308.4</ele>
        <time>2024-01-23T18:07:02Z</time>
      </trkpt>
      <trkpt lat="48.71804" lon="7.1621">
        <ele>306.4</ele>
        <time>2024-01-23T18:07:08Z</time>
      </trkpt>
      <trkpt lat="48.71797" lon="7.16238">
        <ele>304.7</ele>
        <time>2024-01-23T18:07:14Z</time>
      </trkpt>
      <trkpt lat="48.7179" lon="7.16268">
        <ele>303.2</ele>
        <time>2024-01-23T18:07:21Z</time>
      </trkpt>
      <trkpt lat="48.71784" lon="7.16294">
        <ele>302</ele>
        <time>2024-01-23T18:07:27Z</time>
      </trkpt>
      <trkpt lat="48.71771" lon="7.16314">
        <ele>301.4</ele>
        <time>2024-01-23T18:07:33Z</time>
      </trkpt>
      <trkpt lat="48.71756" lon="7.16329">
        <ele>301</ele>
        <time>2024-01-23T18:07:39Z</time>
      </trkpt>
      <trkpt lat="48.71739" lon="7.1634">
        <ele>301.4</ele>
        <time>2024-01-23T18:07:46Z</time>
      </trkpt>
      <trkpt lat="48.71721" lon="7.16344">
        <ele>301.8</ele>
        <time>2024-01-23T18:07:53Z</time>
      </trkpt>
      <trkpt lat="48.71702" lon="7.16344">
        <ele>302.2</ele>
        <time>2024-01-23T18:08:01Z</time>
      </trkpt>
      <trkpt lat="48.71682" lon="7.16347">
        <ele>302.8</ele>
        <time>2024-01-23T18:08:08Z</time>
      </trkpt>
      <trkpt lat="48.71664" lon="7.16351">
        <ele>303.7</ele>
        <time>2024-01-23T18:08:16Z</time>
      </trkpt>
      <trkpt lat="48.71645" lon="7.16351">
        <ele>304.4</ele>
        <time>2024-01-23T18:08:24Z</time>
      </trkpt>
      <trkpt lat="48.71626" lon="7.16347">
        <ele>305</ele>
        <time>2024-01-23T18:08:31Z</time>
      </trkpt>
      <trkpt lat="48.71606" lon="7.16343">
        <ele>305.5</ele>
        <time>2024-01-23T18:08:38Z</time>
      </trkpt>
      <trkpt lat="48.71586" lon="7.16337">
        <ele>306.5</ele>
        <time>2024-01-23T18:08:45Z</time>
      </trkpt>
      <trkpt lat="48.71568" lon="7.1633">
        <ele>307.2</ele>
        <time>2024-01-23T18:08:51Z</time>
      </trkpt>
      <trkpt lat="48.71548" lon="7.16327">
        <ele>307.6</ele>
        <time>2024-01-23T18:08:58Z</time>
      </trkpt>
      <trkpt lat="48.71528" lon="7.16325">
        <ele>308</ele>
        <time>2024-01-23T18:09:05Z</time>
      </trkpt>
      <trkpt lat="48.71508" lon="7.16325">
        <ele>308.6</ele>
        <time>2024-01-23T18:09:12Z</time>
      </trkpt>
      <trkpt lat="48.71489" lon="7.16315">
        <ele>309.2</ele>
        <time>2024-01-23T18:09:20Z</time>
      </trkpt>
      <trkpt lat="48.71469" lon="7.16308">
        <ele>309.8</ele>
        <time>2024-01-23T18:09:27Z</time>
      </trkpt>
      <trkpt lat="48.71451" lon="7.16305">
        <ele>310.3</ele>
        <time>2024-01-23T18:09:34Z</time>
      </trkpt>
      <trkpt lat="48.71432" lon="7.163">
        <ele>310.7</ele>
        <time>2024-01-23T18:09:41Z</time>
      </trkpt>
      <trkpt lat="48.71412" lon="7.16292">
        <ele>311.6</ele>
        <time>2024-01-23T18:09:48Z</time>
      </trkpt>
      <trkpt lat="48.71395" lon="7.16277">
        <ele>313.1</ele>
        <time>2024-01-23T18:09:56Z</time>
      </trkpt>
      <trkpt lat="48.71378" lon="7.16265">
        <ele>314</ele>
        <time>2024-01-23T18:10:05Z</time>
      </trkpt>
      <trkpt lat="48.71362" lon="7.16251">
        <ele>314.7</ele>
        <time>2024-01-23T18:10:12Z</time>
      </trkpt>
      <trkpt lat="48.71343" lon="7.1624">
        <ele>315.2</ele>
        <time>2024-01-23T18:10:19Z</time>
      </trkpt>
      <trkpt lat="48.71325" lon="7.1623">
        <ele>315.9</ele>
        <time>2024-01-23T18:10:26Z</time>
      </trkpt>
      <trkpt lat="48.7131" lon="7.16212">
        <ele>317.4</ele>
        <time>2024-01-23T18:10:33Z</time>
      </trkpt>
      <trkpt lat="48.71298" lon="7.16191">
        <ele>318</ele>
        <time>2024-01-23T18:10:41Z</time>
      </trkpt>
      <trkpt lat="48.71279" lon="7.1619">
        <ele>317.4</ele>
        <time>2024-01-23T18:10:48Z</time>
      </trkpt>
      <trkpt lat="48.71261" lon="7.16178">
        <ele>317.2</ele>
        <time>2024-01-23T18:10:55Z</time>
      </trkpt>
      <trkpt lat="48.71244" lon="7.16165">
        <ele>317.4</ele>
        <time>2024-01-23T18:11:02Z</time>
      </trkpt>
      <trkpt lat="48.71227" lon="7.16151">
        <ele>317.5</ele>
        <time>2024-01-23T18:11:09Z</time>
      </trkpt>
      <trkpt lat="48.71209" lon="7.16139">
        <ele>317.5</ele>
        <time>2024-01-23T18:11:16Z</time>
      </trkpt>
      <trkpt lat="48.71191" lon="7.16125">
        <ele>317.1</ele>
        <time>2024-01-23T18:11:23Z</time>
      </trkpt>
      <trkpt lat="48.71172" lon="7.16119">
        <ele>316</ele>
        <time>2024-01-23T18:11:30Z</time>
      </trkpt>
      <trkpt lat="48.71151" lon="7.16127">
        <ele>314.7</ele>
        <time>2024-01-23T18:11:36Z</time>
      </trkpt>
      <trkpt lat="48.7113" lon="7.16126">
        <ele>314.6</ele>
        <time>2024-01-23T18:11:42Z</time>
      </trkpt>
      <trkpt lat="48.71112" lon="7.16112">
        <ele>315.4</ele>
        <time>2024-01-23T18:11:49Z</time>
      </trkpt>
      <trkpt lat="48.71101" lon="7.16114">
        <ele>315.9</ele>
        <time>2024-01-23T18:11:54Z</time>
      </trkpt>
      <trkpt lat="48.71098" lon="7.16141">
        <ele>316.2</ele>
        <time>2024-01-23T18:12:01Z</time>
      </trkpt>
      <trkpt lat="48.71097" lon="7.16171">
        <ele>317</ele>
        <time>2024-01-23T18:12:08Z</time>
      </trkpt>
      <trkpt lat="48.71095" lon="7.16198">
        <ele>318.1</ele>
        <time>2024-01-23T18:12:16Z</time>
      </trkpt>
      <trkpt lat="48.71108" lon="7.16222">
        <ele>318.5</ele>
        <time>2024-01-23T18:12:27Z</time>
      </trkpt>
      <trkpt lat="48.71119" lon="7.16244">
        <ele>318.4</ele>
        <time>2024-01-23T18:12:33Z</time>
      </trkpt>
      <trkpt lat="48.71136" lon="7.16262">
        <ele>318</ele>
        <time>2024-01-23T18:12:40Z</time>
      </trkpt>
      <trkpt lat="48.71149" lon="7.16283">
        <ele>317.5</ele>
        <time>2024-01-23T18:12:47Z</time>
      </trkpt>
      <trkpt lat="48.71149" lon="7.1629">
        <ele>317.3</ele>
        <time>2024-01-23T18:12:49Z</time>
      </trkpt>
    </trkseg>
  </trk>
</gpx>